Language selection

Weather shortcuts

Central Coast from McInnes Island to Pine Island: Past 24 Hour Conditions

 

La Perouse Bank - 46206

12:00 AM PDT 23 April 2024Buoy position: 48.83N 126.0W
Disclaimer

This table is a summary of hourly weather conditions for the past 24 hours.
Please note that these observations might not always be representative of weather conditions over their associated marine area.

Date / Time
(PDT)
Wind(knots) Wave height(m) Wave period(s) Pressure(kPa) Air tempC) Water tempC)
23 April 2024
0:00 NW 16 gusts 18 1.34 8.7 101.7 10 10
22 April 2024
23:00 NNW 15 gusts 17 1.39 9.5 101.8 10 10
22:00 NW 16 gusts 19 1.43 8.7 101.9 10 10
21:00 NW 15 gusts 18 1.38 10.0 101.8 10 10
20:00 NNW 15 gusts 18 1.52 8.7 101.9 10 10
19:00 NW 16 gusts 19 1.64 8.7 101.9 10 10
18:00 NW 14 gusts 17 1.62 7.4 102.0 10 11
17:00 NW 12 gusts 14 1.49 10.0 102.1 10 11
16:00 WNW 10 gusts 12 1.59 9.1 102.1 10 11
15:00 WNW 5 gusts 8 1.44 7.7 102.2 10 12
14:00 NW 2 gusts 5 1.52 8.0 102.3 10 12
13:00 calm 1.65 8.7 102.3 10 11
12:00 calm 1.77 8.7 102.4 9 11
11:00 ESE 3 gusts 5 1.48 9.1 102.4 9 11
10:00 ENE 3 gusts 4 1.97 8.3 102.4 8 10
9:00 ENE 2 gusts 3 1.83 8.7 102.5 9 10
8:00 NE 3 gusts 5 2.00 8.3 102.5 9 10
7:00 N 5 gusts 8 1.91 8.7 102.5 8 10
6:00 N 7 gusts 9 1.86 8.7 102.5 8 10
5:00 N 10 gusts 12 1.87 9.1 102.5 9 10
4:00 NNW 11 gusts 13 1.80 9.5 102.6 9 10
3:00 NNW 13 gusts 15 2.07 9.1 102.6 9 10
2:00 NNW 12 gusts 16 2.12 9.5 102.7 9 10
1:00 NNW 12 gusts 15 1.82 8.7 102.7 9 10
0:00 NW 12 gusts 15 2.05 9.1 102.7 9 10

Zoom-in to make a selection

Map of Pacific - South Coast marine weather areas South Nomad - 46036 Sentry Shoal - 46131 South Brooks - 46132 Halibut Bank - 46146 South Moresby - 46147 South Hecate Strait - 46185 West Sea Otter - 46204 La Perouse Bank - 46206 East Dellwood - 46207 Georgia Strait - 46303 English Bay – 46304 Discovery Island Esquimalt Harbour Kelp Reefs Malahat Race Rocks Lightstation Saturna Island Sheringham Point University of Victoria Victoria Gonzales Victoria Int'l Airport Ballenas Islands Campbell River Airport Comox Airport Entrance Island Fanny Island Nanaimo Airport Port Hardy Airport Sisters Islets Estevan Point Port Alberni Sartine Island Solander Island Tofino Airport Grief Point Howe Sound - Pam Rocks Powell River Airport Sechelt Squamish Airport Cape St.James Bella Bella Airport Bella Coola Airport Cathedral Point Herbert Island Point Atkinson Sand Heads Lightstation Tsawwassen Ferry Terminal Vancouver Int'l Airport Vancouver Harbour West Vancouver
Legend:
buoy Buoy
land station Land Station

Pacific - South Coast Area

Another Region

Date modified: